Data for 11/10/2016

Time Sea-Level Adjusted Pressure Absolute Pressure Temperature Relative Humidity Dew Point   
(mb) (inHg) (mb) (inHg) (C) (F) (%) (C) (F)
00:05 1027 30.33 856 25.28 8.9 48.1 50 -0.9 30.4
00:10 1027 30.33 856 25.28 8.9 48 50 -0.9 30.4
00:15 1027 30.33 856 25.28 8.7 47.7 51 -0.9 30.4
00:20 1027 30.33 856 25.28 8.7 47.6 51 -0.7 30.7
00:25 1027 30.33 856 25.28 8.4 47.1 52 -0.8 30.5
00:30 1027 30.33 856 25.28 8.6 47.4 51 -1 30.2
00:35 1027 30.33 856 25.28 8.8 47.9 50 -1.1 30.1
00:40 1027 30.33 856 25.28 9.1 48.3 49 -1 30.3
00:45 1027 30.33 856 25.28 9 48.3 50 -0.8 30.5
00:50 1027 30.33 856 25.28 9 48.2 50 -1 30.3
00:55 1027 30.33 856 25.28 9 48.2 50 -0.8 30.5
01:00 1027 30.33 857 25.31 8.8 47.9 51 -0.8 30.5
01:05 1027 30.33 857 25.31 8.7 47.7 51 -0.9 30.4
01:10 1027 30.33 857 25.31 8.6 47.5 51 -0.9 30.4
01:15 1028 30.36 857 25.31 8.5 47.4 52 -0.8 30.5
01:20 1028 30.36 857 25.31 8.3 46.9 53 -0.8 30.5
01:25 1027 30.33 857 25.31 8.3 46.9 52 -1.1 30.1
01:30 1027 30.33 857 25.31 8 46.5 53 -0.9 30.4
01:35 1028 30.36 857 25.31 7.5 45.5 54 -1.1 30.1
01:40 1028 30.36 857 25.31 7.8 46.1 52 -1.3 29.7
01:45 1028 30.36 857 25.31 8 46.3 53 -0.9 30.3
01:50 1028 30.36 857 25.31 7.6 45.7 54 -1 30.2
01:55 1028 30.36 857 25.31 7.6 45.6 54 -1 30.2
02:00 1028 30.36 857 25.31 7.2 45 56 -0.8 30.5
02:05 1028 30.36 857 25.31 6.6 43.9 59 -0.9 30.3
02:10 1028 30.36 857 25.31 6.3 43.4 62 -0.5 31.2
02:15 1028 30.36 857 25.31 6.2 43.2 60 -1.1 30.1
02:20 1028 30.36 858 25.34 6.2 43.2 59 -1.2 29.9
02:25 1028 30.36 858 25.34 6.6 43.9 58 -1.2 29.9
02:30 1029 30.39 858 25.34 6.6 43.9 58 -1.1 30.1
02:35 1029 30.39 858 25.34 6.4 43.6 59 -1.1 30.1
02:40 1029 30.39 858 25.34 6.1 43 60 -1 30.2
02:45 1029 30.39 858 25.34 5.6 42.2 62 -1 30.3
02:50 1029 30.39 858 25.34 4.8 40.7 66 -1 30.2
02:55 1029 30.39 858 25.34 4.5 40.2 65 -1.5 29.3
03:00 1029 30.39 858 25.34 4.9 40.8 63 -1.6 29.1
03:05 1029 30.39 858 25.34 6.2 43.2 58 -1.4 29.5
03:10 1029 30.39 858 25.34 6.4 43.6 59 -0.9 30.3
03:15 1029 30.39 858 25.34 5.9 42.6 61 -1 30.2
03:20 1029 30.39 858 25.34 5.7 42.2 61 -1.2 29.9
03:25 1029 30.39 858 25.34 5.8 42.4 61 -1.1 30
03:30 1029 30.39 858 25.34 5.6 42 63 -1 30.2
03:35 1029 30.39 858 25.34 4.9 40.9 65 -1 30.1
03:40 1029 30.39 858 25.34 5.2 41.4 63 -1.3 29.7
03:45 1029 30.39 858 25.34 5.6 42.1 62 -1 30.2
03:50 1029 30.39 858 25.34 6 42.7 60 -1.1 30
03:55 1029 30.39 858 25.34 6.4 43.6 60 -0.8 30.5
04:00 1029 30.39 858 25.34 6.2 43.1 61 -0.7 30.8
04:05 1029 30.39 858 25.34 5.7 42.3 62 -1 30.2
04:10 1029 30.39 858 25.34 5.7 42.3 62 -0.9 30.4
04:15 1029 30.39 858 25.34 5.7 42.2 62 -1 30.3
04:20 1029 30.39 858 25.34 5.8 42.4 62 -0.9 30.4
04:25 1029 30.39 858 25.34 5.7 42.3 62 -0.9 30.3
04:30 1029 30.39 858 25.34 5.8 42.4 62 -0.9 30.3
04:35 1029 30.39 858 25.34 5.9 42.7 61 -1 30.2
04:40 1029 30.39 858 25.34 6.3 43.3 59 -1 30.1
04:45 1029 30.39 858 25.34 6.6 43.8 59 -0.8 30.5
04:50 1029 30.39 858 25.34 6.5 43.6 60 -0.7 30.7
04:55 1029 30.39 858 25.34 6.1 43 61 -0.9 30.4
05:00 1029 30.39 858 25.34 6 42.8 61 -0.9 30.4
05:05 1029 30.39 858 25.34 5.7 42.3 62 -0.9 30.4
05:10 1029 30.39 858 25.34 5.7 42.2 63 -0.9 30.4
05:15 1029 30.39 858 25.34 5.6 42 63 -1 30.2
05:20 1029 30.39 858 25.34 5.7 42.2 62 -1 30.2
05:25 1029 30.39 858 25.34 6.3 43.3 59 -1.1 30.1
05:30 1029 30.39 858 25.34 7 44.6 58 -0.8 30.5
05:35 1029 30.39 858 25.34 7.1 44.9 57 -0.8 30.6
05:40 1029 30.39 858 25.34 6.7 44.1 60 -0.6 31
05:45 1029 30.39 858 25.34 6.4 43.5 60 -0.8 30.6
05:50 1029 30.39 858 25.34 6.4 43.4 61 -0.7 30.8
05:55 1029 30.39 858 25.34 6.1 43 61 -0.9 30.4
06:00 1029 30.39 858 25.34 5.9 42.6 62 -0.8 30.5
06:05 1029 30.39 858 25.34 5.7 42.3 63 -0.8 30.5
06:10 1029 30.39 859 25.37 5.4 41.8 64 -0.9 30.4
06:15 1029 30.39 859 25.37 5.3 41.6 64 -0.9 30.4
06:20 1029 30.39 859 25.37 5.3 41.6 64 -0.9 30.4
06:25 1029 30.39 859 25.37 5.4 41.7 64 -1 30.2
06:30 1029 30.39 859 25.37 5.6 42 63 -1 30.2
06:35 1029 30.39 859 25.37 5.6 42.1 63 -0.9 30.4
06:40 1029 30.39 859 25.37 5.5 41.9 63 -1 30.3
06:45 1029 30.39 859 25.37 5.6 42.1 63 -0.8 30.5
06:50 1029 30.39 859 25.37 5.5 42 64 -0.8 30.6
06:55 1029 30.39 859 25.37 5.6 42 63 -0.8 30.5
07:00 1029 30.39 859 25.37 5.6 42.2 63 -0.9 30.4
07:05 1029 30.39 859 25.37 5.4 41.8 64 -0.8 30.5
07:10 1029 30.39 859 25.37 5.5 41.9 63 -0.9 30.4
07:15 1029 30.39 858 25.34 5.8 42.4 62 -0.9 30.4
07:20 1029 30.39 858 25.34 5.9 42.7 62 -0.9 30.4
07:25 1029 30.39 858 25.34 6.1 42.9 62 -0.7 30.7
07:30 1029 30.39 859 25.37 5.8 42.5 62 -0.9 30.3
07:35 1030 30.42 859 25.37 6 42.8 62 -0.7 30.7
07:40 1030 30.42 859 25.37 5.5 42 63 -0.9 30.4
07:45 1030 30.42 859 25.37 5.9 42.7 60 -1.2 29.8
07:50 1030 30.42 859 25.37 6.8 44.3 58 -0.7 30.7
07:55 1030 30.42 859 25.37 6.7 44 59 -0.7 30.7
08:00 1030 30.42 859 25.37 6.5 43.8 60 -0.8 30.6
08:05 1030 30.42 859 25.37 6.7 44.1 59 -0.8 30.6
08:10 1030 30.42 859 25.37 7 44.6 57 -0.8 30.5
08:15 1030 30.42 859 25.37 7.1 44.8 57 -0.7 30.7
08:20 1030 30.42 859 25.37 7.2 45 57 -0.8 30.6
08:25 1030 30.42 859 25.37 7.3 45.2 56 -0.8 30.5
08:30 1030 30.42 859 25.37 7.5 45.5 55 -0.8 30.5
08:35 1030 30.42 859 25.37 7.9 46.2 53 -1 30.2
08:40 1030 30.42 859 25.37 8.3 46.9 53 -0.8 30.5
08:45 1030 30.42 859 25.37 8.7 47.7 51 -0.7 30.8
08:50 1030 30.42 859 25.37 9 48.3 51 -0.6 31
08:55 1030 30.42 859 25.37 9.4 48.9 49 -0.7 30.8
09:00 1030 30.42 859 25.37 9.9 49.8 48 -0.5 31.1
09:05 1030 30.42 859 25.37 10.4 50.7 47 -0.3 31.4
09:10 1030 30.42 859 25.37 10.5 50.9 48 0.1 32.1
09:15 1030 30.42 859 25.37 10.5 50.9 47 -0.4 31.3
09:20 1030 30.42 859 25.37 10.7 51.3 46 -0.5 31.2
09:25 1030 30.42 859 25.37 10.8 51.4 46 -0.4 31.3
09:30 1030 30.42 859 25.37 10.7 51.2 47 -0.3 31.5
09:35 1030 30.42 859 25.37 10.9 51.6 46 -0.2 31.7
09:40 1030 30.42 859 25.37 11.1 52 45 -0.4 31.3
09:45 1030 30.42 859 25.37 11 51.8 46 -0.2 31.6
09:50 1030 30.42 859 25.37 11.1 51.9 45 -0.4 31.3
09:55 1030 30.42 859 25.37 11.3 52.3 44 -0.4 31.2
10:00 1030 30.42 859 25.37 11.3 52.3 45 -0.1 31.8
10:05 1030 30.42 859 25.37 11.3 52.3 45 -0.2 31.7
10:10 1030 30.42 859 25.37 11.3 52.4 45 -0.2 31.7
10:15 1030 30.42 859 25.37 11.6 52.9 44 -0.2 31.7
10:20 1030 30.42 859 25.37 11.9 53.4 43 -0.1 31.8
10:25 1030 30.42 859 25.37 12.3 54.1 42 -0 31.9
10:30 1030 30.42 859 25.37 12.5 54.5 42 0.1 32.2
10:35 1030 30.42 859 25.37 12.6 54.6 43 0.5 32.9
10:40 1030 30.42 859 25.37 12.8 55.1 39 -0.7 30.7
10:45 1030 30.42 859 25.37 13.3 55.9 40 0.1 32.2
10:50 1030 30.42 859 25.37 13.6 56.4 35 -1.7 29
10:55 1030 30.42 859 25.37 13.8 56.8 34 -1.8 28.7
11:00 1030 30.42 859 25.37 13.7 56.7 35 -1.6 29.2
11:05 1030 30.42 859 25.37 13.6 56.4 41 0.5 32.9
11:10 1030 30.42 859 25.37 13.6 56.4 41 0.8 33.4
11:15 1030 30.42 859 25.37 13.3 56 42 0.9 33.6
11:20 1030 30.42 859 25.37 13.7 56.7 43 1.4 34.4
11:25 1030 30.42 859 25.37 13.1 55.6 44 1.2 34.2
11:30 1030 30.42 859 25.37 13.2 55.8 43 1 33.9
11:35 1030 30.42 859 25.37 13.7 56.6 43 1.4 34.5
11:40 1030 30.42 859 25.37 13.6 56.4 44 1.6 34.9
11:45 1030 30.42 859 25.37 12.8 55 48 2 35.7
11:50 1029 30.39 859 25.37 12.5 54.6 48 1.8 35.3
11:55 1029 30.39 859 25.37 13 55.4 45 1.5 34.7
12:00 1029 30.39 859 25.37 13 55.3 46 1.8 35.3
12:05 1029 30.39 859 25.37 13.2 55.8 44 1.3 34.4
12:10 1029 30.39 859 25.37 13.2 55.8 45 1.5 34.8
12:15 1029 30.39 858 25.34 13.3 55.9 45 1.5 34.7
12:20 1029 30.39 858 25.34 12.9 55.3 44 1.2 34.1
12:25 1029 30.39 858 25.34 13.5 56.3 43 1.3 34.4
12:30 1029 30.39 858 25.34 13.9 57.1 41 1 33.8
12:35 1029 30.39 858 25.34 14.1 57.4 42 1.4 34.4
12:40 1029 30.39 858 25.34 13.9 57.1 40 0.8 33.4
12:45 1029 30.39 858 25.34 13.8 56.8 42 1.2 34.1
12:50 1029 30.39 858 25.34 14 57.3 39 0.5 33
12:55 1029 30.39 858 25.34 14.3 57.8 39 0.5 32.9
13:00 1029 30.39 858 25.34 14.9 58.7 37 0.6 33
13:05 1029 30.39 858 25.34 14.9 58.9 39 1.1 34
13:10 1029 30.39 858 25.34 14.1 57.3 39 0.3 32.6
13:15 1028 30.36 858 25.34 14.5 58.1 38 0.5 32.9
13:20 1028 30.36 858 25.34 14.9 58.7 39 1 33.8
13:25 1028 30.36 858 25.34 14 57.1 40 0.6 33.1
13:30 1028 30.36 858 25.34 14.1 57.3 40 0.7 33.3
13:35 1028 30.36 857 25.31 14.5 58.2 37 -0.1 31.9
13:40 1028 30.36 857 25.31 14.6 58.2 40 1.2 34.2
13:45 1028 30.36 857 25.31 14.2 57.5 40 0.7 33.3
13:50 1028 30.36 857 25.31 14.1 57.3 39 0.6 33
13:55 1028 30.36 857 25.31 14.6 58.2 39 0.9 33.6
14:00 1028 30.36 857 25.31 14.1 57.3 40 0.8 33.5
14:05 1028 30.36 857 25.31 14.9 58.8 38 0.7 33.2
14:10 1028 30.36 857 25.31 14.4 57.8 39 0.7 33.3
14:15 1028 30.36 857 25.31 14.9 58.8 38 0.6 33.2
14:20 1028 30.36 857 25.31 15.1 59.2 37 0.7 33.3
14:25 1028 30.36 857 25.31 14.6 58.3 37 0.1 32.2
14:30 1028 30.36 857 25.31 14.9 58.8 33 -1.2 29.9
14:35 1028 30.36 857 25.31 15.1 59.3 33 -0.9 30.4
14:40 1028 30.36 857 25.31 15.1 59.3 33 -0.8 30.5
14:45 1028 30.36 857 25.31 14.8 58.6 34 -0.8 30.5
14:50 1028 30.36 857 25.31 14.8 58.7 34 -0.8 30.5
14:55 1028 30.36 857 25.31 14.7 58.5 34 -0.7 30.7
15:00 1028 30.36 857 25.31 14.5 58.1 35 -0.5 31
15:05 1028 30.36 857 25.31 14.5 58.1 35 -0.5 31
15:10 1028 30.36 857 25.31 14.6 58.3 35 -0.4 31.3
15:15 1028 30.36 857 25.31 14.6 58.3 36 -0.2 31.7
15:20 1028 30.36 857 25.31 14.8 58.6 36 -0.1 31.9
15:25 1028 30.36 857 25.31 14.7 58.4 36 0 32.1
15:30 1028 30.36 857 25.31 14.7 58.4 36 -0 31.9
15:35 1028 30.36 857 25.31 14.3 57.8 37 -0.1 31.8
15:40 1028 30.36 857 25.31 14.3 57.7 37 -0.1 31.7
15:45 1028 30.36 857 25.31 14.2 57.6 38 0.1 32.1
15:50 1028 30.36 857 25.31 14.1 57.4 38 0.1 32.2
15:55 1028 30.36 857 25.31 13.9 57 39 0.1 32.2
16:00 1028 30.36 857 25.31 13.7 56.7 39 0 32.1
16:05 1028 30.36 857 25.31 13.6 56.5 39 -0.1 31.8
16:10 1028 30.36 857 25.31 13.5 56.3 39 -0.1 31.9
16:15 1028 30.36 857 25.31 13.4 56.1 39 -0.2 31.7
16:20 1028 30.36 857 25.31 13.2 55.8 40 -0.1 31.8
16:25 1027 30.33 857 25.31 13.1 55.5 40 -0.1 31.8
16:30 1027 30.33 857 25.31 12.9 55.3 41 -0.1 31.8
16:35 1027 30.33 857 25.31 12.7 54.9 41 0 32
16:40 1027 30.33 857 25.31 12.6 54.6 41 -0.2 31.7
16:45 1027 30.33 857 25.31 12.4 54.4 41 -0.3 31.4
16:50 1027 30.33 857 25.31 12.3 54.1 41 -0.4 31.3
16:55 1028 30.36 857 25.31 12.2 53.9 41 -0.5 31.1
17:00 1027 30.33 857 25.31 12.1 53.7 42 -0.5 31
17:05 1027 30.33 857 25.31 11.9 53.5 42 -0.5 31.1
17:10 1028 30.36 857 25.31 11.8 53.3 42 -0.6 30.8
17:15 1028 30.36 857 25.31 11.7 53.1 42 -0.7 30.8
17:20 1027 30.33 857 25.31 11.6 52.9 43 -0.5 31
17:25 1028 30.36 857 25.31 11.5 52.6 43 -0.5 31.1
17:30 1028 30.36 857 25.31 11.3 52.3 44 -0.5 31.2
17:35 1028 30.36 857 25.31 11.1 52 45 -0.4 31.3
17:40 1028 30.36 857 25.31 11 51.7 45 -0.6 31
17:45 1028 30.36 857 25.31 11 51.8 44 -0.6 30.9
17:50 1028 30.36 857 25.31 11.1 51.9 44 -0.7 30.7
17:55 1028 30.36 857 25.31 11 51.8 44 -0.7 30.7
18:00 1028 30.36 857 25.31 11 51.8 44 -0.8 30.6
18:05 1028 30.36 857 25.31 11 51.7 44 -0.8 30.5
18:10 1028 30.36 857 25.31 10.9 51.6 44 -0.7 30.7
18:15 1028 30.36 857 25.31 10.8 51.4 45 -0.7 30.8
18:20 1028 30.36 857 25.31 10.7 51.3 45 -0.6 30.9
18:25 1028 30.36 857 25.31 10.7 51.3 45 -0.6 30.9
18:30 1028 30.36 857 25.31 10.7 51.2 46 -0.6 31
18:35 1027 30.33 857 25.31 10.6 51.1 46 -0.6 30.9
18:40 1028 30.36 857 25.31 10.7 51.2 46 -0.6 31
18:45 1027 30.33 857 25.31 10.6 51 46 -0.6 30.9
18:50 1028 30.36 857 25.31 10.6 51 46 -0.5 31.2
18:55 1028 30.36 857 25.31 10.5 50.8 46 -0.5 31.1
19:00 1028 30.36 857 25.31 10.5 50.8 47 -0.4 31.2
19:05 1028 30.36 857 25.31 10.4 50.7 47 -0.4 31.2
19:10 1028 30.36 857 25.31 10.4 50.7 47 -0.4 31.3
19:15 1027 30.33 857 25.31 10.3 50.6 47 -0.5 31.2
19:20 1027 30.33 857 25.31 10.3 50.5 47 -0.5 31.2
19:25 1027 30.33 857 25.31 10.3 50.5 48 -0.4 31.4
19:30 1027 30.33 857 25.31 10.2 50.4 47 -0.4 31.2
19:35 1027 30.33 857 25.31 10.3 50.5 47 -0.4 31.3
19:40 1027 30.33 857 25.31 10.2 50.4 47 -0.4 31.3
19:45 1027 30.33 857 25.31 10.2 50.3 48 -0.3 31.4
19:50 1027 30.33 857 25.31 10.1 50.1 48 -0.4 31.2
19:55 1027 30.33 857 25.31 10 50 48 -0.4 31.3
20:00 1027 30.33 857 25.31 10 49.9 48 -0.4 31.3
20:05 1027 30.33 857 25.31 9.8 49.7 49 -0.2 31.6
20:10 1027 30.33 857 25.31 9.7 49.4 50 -0.2 31.6
20:15 1027 30.33 857 25.31 9.5 49.2 51 -0.2 31.7
20:20 1027 30.33 857 25.31 9.4 48.9 51 -0.2 31.7
20:25 1027 30.33 857 25.31 9.4 48.9 52 -0 31.9
20:30 1027 30.33 857 25.31 9.2 48.6 52 -0.1 31.9
20:35 1028 30.36 857 25.31 9.1 48.5 52 -0.1 31.9
20:40 1028 30.36 857 25.31 9.1 48.4 52 -0.1 31.9
20:45 1028 30.36 857 25.31 9.1 48.3 53 -0.1 31.8
20:50 1028 30.36 857 25.31 9 48.3 52 -0.1 31.7
20:55 1028 30.36 857 25.31 9.1 48.3 52 -0.1 31.7
21:00 1028 30.36 857 25.31 9 48.3 53 -0.1 31.8
21:05 1028 30.36 857 25.31 9 48.2 53 -0.1 31.8
21:10 1028 30.36 857 25.31 9 48.1 53 -0.1 31.8
21:15 1028 30.36 857 25.31 9 48.1 53 -0.2 31.7
21:20 1027 30.33 857 25.31 8.9 48 53 -0.1 31.9
21:25 1028 30.36 857 25.31 8.9 48 53 -0.1 31.7
21:30 1028 30.36 857 25.31 8.8 47.9 53 -0.1 31.8
21:35 1028 30.36 857 25.31 8.8 47.8 53 -0.2 31.6
21:40 1028 30.36 857 25.31 8.8 47.8 53 -0.2 31.7
21:45 1027 30.33 857 25.31 8.8 47.8 53 -0.2 31.7
21:50 1028 30.36 857 25.31 8.8 47.8 53 -0.2 31.6
21:55 1027 30.33 857 25.31 8.7 47.7 53 -0.2 31.6
22:00 1027 30.33 857 25.31 8.7 47.7 53 -0.2 31.6
22:05 1027 30.33 857 25.31 8.7 47.7 54 -0 32
22:10 1027 30.33 857 25.31 8.6 47.4 54 -0.1 31.8
22:15 1027 30.33 857 25.31 8.5 47.4 54 -0.1 31.8
22:20 1027 30.33 856 25.28 8.6 47.4 54 -0.1 31.9
22:25 1027 30.33 856 25.28 8.5 47.3 55 -0.1 31.9
22:30 1027 30.33 856 25.28 8.5 47.4 55 -0.1 31.9
22:35 1027 30.33 856 25.28 8.6 47.5 55 -0 32
22:40 1027 30.33 857 25.31 8.5 47.3 55 0 32
22:45 1027 30.33 857 25.31 8.4 47.2 56 0.1 32.1
22:50 1027 30.33 857 25.31 8.3 47 56 0.1 32.2
22:55 1027 30.33 857 25.31 8.3 46.9 56 0.1 32.1
23:00 1027 30.33 857 25.31 8.1 46.6 57 0.1 32.1
23:05 1027 30.33 857 25.31 8.1 46.6 57 0.1 32.2
23:10 1028 30.36 857 25.31 8 46.4 57 0.1 32.1
23:15 1028 30.36 857 25.31 7.9 46.2 58 0.1 32.1
23:20 1027 30.33 857 25.31 7.7 45.9 59 0.1 32.2
23:25 1027 30.33 857 25.31 7.5 45.5 59 0.1 32.1
23:30 1027 30.33 857 25.31 7.5 45.4 59 -0 31.9
23:35 1027 30.33 857 25.31 7.4 45.4 59 0.1 32.1
23:40 1027 30.33 857 25.31 6.9 44.3 61 -0.2 31.7
23:45 1027 30.33 857 25.31 6.1 43 63 -0.4 31.2
23:50 1027 30.33 857 25.31 6 42.9 63 -0.4 31.3
23:55 1027 30.33 857 25.31 6.2 43.1 63 -0.4 31.3
24:00 1027 30.33 857 25.31 6.3 43.3 63 -0.3 31.4